sensor_id;sensor_type;location;lat;lon;timestamp;pressure;altitude;pressure_sealevel;temperature;humidity
46722;BME280;32455;43.430;23.136;2023-06-19T00:00:04;98142.34;;;18.91;100.00
46722;BME280;32455;43.430;23.136;2023-06-19T00:02:58;98135.31;;;18.80;100.00
46722;BME280;32455;43.430;23.136;2023-06-19T00:05:43;98148.09;;;18.80;100.00
46722;BME280;32455;43.430;23.136;2023-06-19T00:08:29;98136.41;;;18.69;100.00
46722;BME280;32455;43.430;23.136;2023-06-19T00:11:15;98119.53;;;18.62;100.00
46722;BME280;32455;43.430;23.136;2023-06-19T00:14:00;98127.69;;;18.67;100.00
46722;BME280;32455;43.430;23.136;2023-06-19T00:16:45;98120.09;;;18.64;100.00
46722;BME280;32455;43.430;23.136;2023-06-19T00:19:32;98120.91;;;18.64;100.00
46722;BME280;32455;43.430;23.136;2023-06-19T00:22:20;98111.94;;;18.53;100.00
46722;BME280;32455;43.430;23.136;2023-06-19T00:25:06;98114.41;;;18.50;100.00
46722;BME280;32455;43.430;23.136;2023-06-19T00:27:52;98125.28;;;18.55;100.00
46722;BME280;32455;43.430;23.136;2023-06-19T00:30:37;98118.19;;;18.49;100.00
46722;BME280;32455;43.430;23.136;2023-06-19T00:33:23;98125.53;;;18.48;100.00
46722;BME280;32455;43.430;23.136;2023-06-19T00:36:12;98108.16;;;18.34;100.00
46722;BME280;32455;43.430;23.136;2023-06-19T00:38:57;98112.81;;;18.29;100.00
46722;BME280;32455;43.430;23.136;2023-06-19T00:41:43;98113.06;;;18.27;100.00
46722;BME280;32455;43.430;23.136;2023-06-19T00:44:29;98108.75;;;18.00;100.00
46722;BME280;32455;43.430;23.136;2023-06-19T00:47:14;98109.00;;;17.89;100.00
46722;BME280;32455;43.430;23.136;2023-06-19T00:50:00;98115.25;;;17.84;100.00
46722;BME280;32455;43.430;23.136;2023-06-19T00:52:45;98106.56;;;17.87;100.00
46722;BME280;32455;43.430;23.136;2023-06-19T00:55:32;98097.81;;;17.70;100.00
46722;BME280;32455;43.430;23.136;2023-06-19T00:58:20;98103.03;;;17.82;100.00
46722;BME280;32455;43.430;23.136;2023-06-19T01:01:05;98091.31;;;17.76;100.00
46722;BME280;32455;43.430;23.136;2023-06-19T01:03:50;98080.75;;;17.74;100.00
46722;BME280;32455;43.430;23.136;2023-06-19T01:09:50;98099.22;;;17.93;100.00
46722;BME280;32455;43.430;23.136;2023-06-19T01:12:46;98104.66;;;17.88;100.00
46722;BME280;32455;43.430;23.136;2023-06-19T01:15:38;98100.25;;;17.71;100.00
46722;BME280;32455;43.430;23.136;2023-06-19T01:18:26;98106.78;;;17.65;100.00
46722;BME280;32455;43.430;23.136;2023-06-19T01:21:13;98107.91;;;17.74;100.00
46722;BME280;32455;43.430;23.136;2023-06-19T01:23:59;98103.78;;;17.57;100.00
46722;BME280;32455;43.430;23.136;2023-06-19T01:26:45;98104.59;;;17.62;100.00
46722;BME280;32455;43.430;23.136;2023-06-19T01:29:30;98104.06;;;17.60;100.00
46722;BME280;32455;43.430;23.136;2023-06-19T01:32:21;98102.16;;;17.71;100.00
46722;BME280;32455;43.430;23.136;2023-06-19T01:35:11;98106.75;;;17.50;100.00
46722;BME280;32455;43.430;23.136;2023-06-19T01:37:59;98105.66;;;17.41;100.00
46722;BME280;32455;43.430;23.136;2023-06-19T01:40:46;98120.34;;;17.55;100.00
46722;BME280;32455;43.430;23.136;2023-06-19T01:43:32;98133.63;;;17.41;100.00
46722;BME280;32455;43.430;23.136;2023-06-19T01:46:17;98117.91;;;17.64;100.00
46722;BME280;32455;43.430;23.136;2023-06-19T01:49:06;98108.69;;;17.70;100.00
46722;BME280;32455;43.430;23.136;2023-06-19T01:51:51;98125.25;;;17.63;100.00
46722;BME280;32455;43.430;23.136;2023-06-19T01:54:37;98105.41;;;17.47;100.00
46722;BME280;32455;43.430;23.136;2023-06-19T01:57:22;98122.25;;;17.49;100.00
46722;BME280;32455;43.430;23.136;2023-06-19T02:00:08;98121.97;;;17.41;100.00
46722;BME280;32455;43.430;23.136;2023-06-19T02:02:54;98130.91;;;17.46;100.00
46722;BME280;32455;43.430;23.136;2023-06-19T02:05:40;98121.94;;;17.31;100.00
46722;BME280;32455;43.430;23.136;2023-06-19T02:08:25;98122.94;;;17.09;100.00
46722;BME280;32455;43.430;23.136;2023-06-19T02:11:10;98119.38;;;16.98;100.00
46722;BME280;32455;43.430;23.136;2023-06-19T02:13:56;98124.25;;;16.96;100.00
46722;BME280;32455;43.430;23.136;2023-06-19T02:16:41;98114.50;;;17.00;100.00
46722;BME280;32455;43.430;23.136;2023-06-19T02:19:29;98127.56;;;17.09;100.00
46722;BME280;32455;43.430;23.136;2023-06-19T02:22:15;98127.81;;;17.07;100.00
46722;BME280;32455;43.430;23.136;2023-06-19T02:25:00;98131.31;;;16.97;100.00
46722;BME280;32455;43.430;23.136;2023-06-19T02:27:45;98131.53;;;16.86;100.00
46722;BME280;32455;43.430;23.136;2023-06-19T02:30:30;98130.41;;;16.82;100.00
46722;BME280;32455;43.430;23.136;2023-06-19T02:33:16;98142.06;;;16.77;100.00
46722;BME280;32455;43.430;23.136;2023-06-19T02:36:01;98127.16;;;16.74;100.00
46722;BME280;32455;43.430;23.136;2023-06-19T02:38:47;98131.16;;;16.72;100.00
46722;BME280;32455;43.430;23.136;2023-06-19T02:41:32;98131.72;;;16.74;100.00
46722;BME280;32455;43.430;23.136;2023-06-19T02:44:17;98127.31;;;16.63;100.00
46722;BME280;32455;43.430;23.136;2023-06-19T02:47:03;98143.88;;;16.66;100.00
46722;BME280;32455;43.430;23.136;2023-06-19T02:49:49;98135.63;;;16.46;100.00
46722;BME280;32455;43.430;23.136;2023-06-19T02:52:34;98132.91;;;16.46;100.00
46722;BME280;32455;43.430;23.136;2023-06-19T02:55:20;98141.25;;;16.39;100.00
46722;BME280;32455;43.430;23.136;2023-06-19T02:58:05;98135.88;;;16.44;100.00
46722;BME280;32455;43.430;23.136;2023-06-19T03:00:51;98152.75;;;16.51;100.00
46722;BME280;32455;43.430;23.136;2023-06-19T03:03:36;98153.09;;;16.65;100.00
46722;BME280;32455;43.430;23.136;2023-06-19T03:06:22;98155.91;;;16.75;100.00
46722;BME280;32455;43.430;23.136;2023-06-19T03:09:07;98161.16;;;16.92;100.00
46722;BME280;32455;43.430;23.136;2023-06-19T03:11:57;98142.66;;;16.84;100.00
46722;BME280;32455;43.430;23.136;2023-06-19T03:14:42;98142.34;;;16.75;100.00
46722;BME280;32455;43.430;23.136;2023-06-19T03:17:28;98147.59;;;16.92;100.00
46722;BME280;32455;43.430;23.136;2023-06-19T03:20:13;98142.19;;;17.02;100.00
46722;BME280;32455;43.430;23.136;2023-06-19T03:22:59;98144.91;;;17.02;100.00
46722;BME280;32455;43.430;23.136;2023-06-19T03:25:44;98148.75;;;17.12;100.00
46722;BME280;32455;43.430;23.136;2023-06-19T03:28:28;98149.03;;;17.15;100.00
46722;BME280;32455;43.430;23.136;2023-06-19T03:31:14;98147.13;;;17.11;100.00
46722;BME280;32455;43.430;23.136;2023-06-19T03:34:00;98143.88;;;17.14;100.00
46722;BME280;32455;43.430;23.136;2023-06-19T03:36:45;98146.25;;;17.00;100.00
46722;BME280;32455;43.430;23.136;2023-06-19T03:39:30;98159.56;;;17.01;100.00
46722;BME280;32455;43.430;23.136;2023-06-19T03:42:16;98161.44;;;16.96;100.00
46722;BME280;32455;43.430;23.136;2023-06-19T03:45:01;98152.75;;;16.94;100.00
46722;BME280;32455;43.430;23.136;2023-06-19T03:47:46;98148.44;;;17.03;100.00
46722;BME280;32455;43.430;23.136;2023-06-19T03:50:32;98142.16;;;16.97;100.00
46722;BME280;32455;43.430;23.136;2023-06-19T03:53:19;98147.66;;;17.13;100.00
46722;BME280;32455;43.430;23.136;2023-06-19T03:56:04;98142.50;;;17.11;100.00
46722;BME280;32455;43.430;23.136;2023-06-19T03:58:50;98139.50;;;17.08;100.00
46722;BME280;32455;43.430;23.136;2023-06-19T04:01:35;98133.81;;;17.09;100.00
46722;BME280;32455;43.430;23.136;2023-06-19T04:04:21;98141.72;;;17.21;100.00
46722;BME280;32455;43.430;23.136;2023-06-19T04:07:06;98142.06;;;17.45;100.00
46722;BME280;32455;43.430;23.136;2023-06-19T04:09:52;98140.75;;;17.58;100.00
46722;BME280;32455;43.430;23.136;2023-06-19T04:12:38;98136.69;;;17.70;100.00
46722;BME280;32455;43.430;23.136;2023-06-19T04:15:25;98123.09;;;17.60;100.00
46722;BME280;32455;43.430;23.136;2023-06-19T04:18:10;98134.25;;;17.69;100.00
46722;BME280;32455;43.430;23.136;2023-06-19T04:20:55;98139.41;;;17.70;100.00
46722;BME280;32455;43.430;23.136;2023-06-19T04:23:41;98136.44;;;17.77;100.00
46722;BME280;32455;43.430;23.136;2023-06-19T04:26:26;98138.34;;;17.76;100.00
46722;BME280;32455;43.430;23.136;2023-06-19T04:29:11;98122.00;;;17.71;100.00
46722;BME280;32455;43.430;23.136;2023-06-19T04:32:02;98146.25;;;17.98;100.00
46722;BME280;32455;43.430;23.136;2023-06-19T04:34:56;98126.69;;;18.01;100.00
46722;BME280;32455;43.430;23.136;2023-06-19T04:37:42;98149.78;;;18.19;100.00
46722;BME280;32455;43.430;23.136;2023-06-19T04:40:27;98143.28;;;18.25;100.00
46722;BME280;32455;43.430;23.136;2023-06-19T04:43:12;98151.13;;;18.32;100.00
46722;BME280;32455;43.430;23.136;2023-06-19T04:45:58;98141.88;;;18.48;100.00
46722;BME280;32455;43.430;23.136;2023-06-19T04:48:43;98146.78;;;18.72;100.00
46722;BME280;32455;43.430;23.136;2023-06-19T04:51:28;98151.09;;;18.78;100.00
46722;BME280;32455;43.430;23.136;2023-06-19T04:54:14;98149.97;;;18.94;100.00
46722;BME280;32455;43.430;23.136;2023-06-19T04:56:59;98157.84;;;18.96;100.00
46722;BME280;32455;43.430;23.136;2023-06-19T04:59:45;98147.50;;;19.03;100.00
46722;BME280;32455;43.430;23.136;2023-06-19T05:02:30;98155.31;;;19.20;100.00
46722;BME280;32455;43.430;23.136;2023-06-19T05:05:17;98155.00;;;19.32;100.00
46722;BME280;32455;43.430;23.136;2023-06-19T05:08:02;98158.81;;;19.31;100.00
46722;BME280;32455;43.430;23.136;2023-06-19T05:10:48;98164.13;;;19.66;100.00
46722;BME280;32455;43.430;23.136;2023-06-19T05:13:33;98153.94;;;19.77;100.00
46722;BME280;32455;43.430;23.136;2023-06-19T05:16:18;98159.72;;;19.65;100.00
46722;BME280;32455;43.430;23.136;2023-06-19T05:19:04;98162.09;;;19.82;100.00
46722;BME280;32455;43.430;23.136;2023-06-19T05:21:49;98162.09;;;19.82;100.00
46722;BME280;32455;43.430;23.136;2023-06-19T05:24:35;98184.38;;;19.94;100.00
46722;BME280;32455;43.430;23.136;2023-06-19T05:27:21;98169.22;;;20.12;100.00
46722;BME280;32455;43.430;23.136;2023-06-19T05:30:06;98172.28;;;20.06;100.00
46722;BME280;32455;43.430;23.136;2023-06-19T05:32:52;98174.69;;;20.12;100.00
46722;BME280;32455;43.430;23.136;2023-06-19T05:35:38;98176.91;;;20.10;100.00
46722;BME280;32455;43.430;23.136;2023-06-19T05:38:23;98175.22;;;20.14;100.00
46722;BME280;32455;43.430;23.136;2023-06-19T05:41:10;98185.41;;;20.38;100.00
46722;BME280;32455;43.430;23.136;2023-06-19T05:43:55;98200.72;;;20.34;100.00
46722;BME280;32455;43.430;23.136;2023-06-19T05:46:41;98194.59;;;20.47;100.00
46722;BME280;32455;43.430;23.136;2023-06-19T05:49:26;98178.25;;;20.42;100.00
46722;BME280;32455;43.430;23.136;2023-06-19T05:52:11;98174.97;;;20.45;100.00
46722;BME280;32455;43.430;23.136;2023-06-19T05:54:57;98186.69;;;20.45;100.00
46722;BME280;32455;43.430;23.136;2023-06-19T05:57:42;98188.09;;;20.48;100.00
46722;BME280;32455;43.430;23.136;2023-06-19T06:00:28;98200.72;;;20.68;100.00
46722;BME280;32455;43.430;23.136;2023-06-19T06:03:15;98199.16;;;20.62;100.00
46722;BME280;32455;43.430;23.136;2023-06-19T06:06:00;98197.66;;;20.74;100.00
46722;BME280;32455;43.430;23.136;2023-06-19T06:08:48;98206.91;;;20.79;100.00
46722;BME280;32455;43.430;23.136;2023-06-19T06:11:33;98211.75;;;20.87;95.25
46722;BME280;32455;43.430;23.136;2023-06-19T06:14:19;98214.09;;;20.98;100.00
46722;BME280;32455;43.430;23.136;2023-06-19T06:17:05;98212.69;;;21.01;97.96
46722;BME280;32455;43.430;23.136;2023-06-19T06:19:51;98209.00;;;21.11;94.05
46722;BME280;32455;43.430;23.136;2023-06-19T06:22:36;98216.75;;;21.04;97.50
46722;BME280;32455;43.430;23.136;2023-06-19T06:25:22;98210.88;;;21.15;96.82
46722;BME280;32455;43.430;23.136;2023-06-19T06:28:07;98222.03;;;21.19;93.08
46722;BME280;32455;43.430;23.136;2023-06-19T06:30:53;98220.72;;;21.40;97.66
46722;BME280;32455;43.430;23.136;2023-06-19T06:33:38;98217.00;;;21.31;88.93
46722;BME280;32455;43.430;23.136;2023-06-19T06:36:24;98208.28;;;21.29;91.42
46722;BME280;32455;43.430;23.136;2023-06-19T06:39:10;98212.44;;;21.50;97.71
46722;BME280;32455;43.430;23.136;2023-06-19T06:41:56;98218.78;;;21.46;93.04
46722;BME280;32455;43.430;23.136;2023-06-19T06:44:41;98216.19;;;21.55;93.85
46722;BME280;32455;43.430;23.136;2023-06-19T06:47:26;98219.97;;;21.59;93.89
46722;BME280;32455;43.430;23.136;2023-06-19T06:50:12;98219.53;;;21.70;94.00
46722;BME280;32455;43.430;23.136;2023-06-19T06:52:57;98229.22;;;21.82;91.14
46722;BME280;32455;43.430;23.136;2023-06-19T06:55:42;98229.75;;;21.84;87.58
46722;BME280;32455;43.430;23.136;2023-06-19T06:58:27;98220.72;;;21.83;89.55
46722;BME280;32455;43.430;23.136;2023-06-19T07:01:11;98232.13;;;21.90;89.61
46722;BME280;32455;43.430;23.136;2023-06-19T07:03:57;98229.53;;;21.99;86.72
46722;BME280;32455;43.430;23.136;2023-06-19T07:06:42;98225.31;;;22.07;87.00
46722;BME280;32455;43.430;23.136;2023-06-19T07:09:27;98227.25;;;22.25;91.06
46722;BME280;32455;43.430;23.136;2023-06-19T07:12:13;98224.91;;;22.18;90.39
46722;BME280;32455;43.430;23.136;2023-06-19T07:14:58;98226.09;;;22.31;90.54
46722;BME280;32455;43.430;23.136;2023-06-19T07:17:44;98240.78;;;22.35;87.05
46722;BME280;32455;43.430;23.136;2023-06-19T07:20:30;98231.69;;;22.40;85.89
46722;BME280;32455;43.430;23.136;2023-06-19T07:23:16;98234.63;;;22.43;86.64
46722;BME280;32455;43.430;23.136;2023-06-19T07:26:02;98231.13;;;22.57;84.52
46722;BME280;32455;43.430;23.136;2023-06-19T07:28:47;98250.28;;;22.57;82.71
46722;BME280;32455;43.430;23.136;2023-06-19T07:31:33;98245.25;;;22.64;82.71
46722;BME280;32455;43.430;23.136;2023-06-19T07:34:18;98237.88;;;22.78;86.40
46722;BME280;32455;43.430;23.136;2023-06-19T07:37:04;98232.19;;;22.93;90.06
46722;BME280;32455;43.430;23.136;2023-06-19T07:39:50;98239.38;;;23.03;88.04
46722;BME280;32455;43.430;23.136;2023-06-19T07:42:36;98242.88;;;23.09;85.07
46722;BME280;32455;43.430;23.136;2023-06-19T07:45:21;98240.00;;;23.00;86.96
46722;BME280;32455;43.430;23.136;2023-06-19T07:48:08;98235.97;;;23.39;92.74
46722;BME280;32455;43.430;23.136;2023-06-19T07:50:53;98230.88;;;23.46;87.42
46722;BME280;32455;43.430;23.136;2023-06-19T07:53:39;98237.69;;;23.48;86.60
46722;BME280;32455;43.430;23.136;2023-06-19T07:56:24;98245.31;;;23.52;86.60
46722;BME280;32455;43.430;23.136;2023-06-19T07:59:09;98233.56;;;23.65;91.21
46722;BME280;32455;43.430;23.136;2023-06-19T08:01:55;98243.69;;;23.64;83.78
46722;BME280;32455;43.430;23.136;2023-06-19T08:04:40;98249.56;;;23.58;81.90
46722;BME280;32455;43.430;23.136;2023-06-19T08:07:25;98264.97;;;23.72;81.29
46722;BME280;32455;43.430;23.136;2023-06-19T08:10:11;98271.53;;;23.85;77.17
46722;BME280;32455;43.430;23.136;2023-06-19T08:12:56;98264.22;;;23.81;74.16
46722;BME280;32455;43.430;23.136;2023-06-19T08:15:41;98252.31;;;23.85;76.42
46722;BME280;32455;43.430;23.136;2023-06-19T08:18:28;98255.66;;;23.96;73.82
46722;BME280;32455;43.430;23.136;2023-06-19T08:21:13;98257.91;;;23.94;77.25
46722;BME280;32455;43.430;23.136;2023-06-19T08:23:59;98260.34;;;23.95;79.46
46722;BME280;32455;43.430;23.136;2023-06-19T08:26:45;98263.91;;;23.96;76.06
46722;BME280;32455;43.430;23.136;2023-06-19T08:29:35;98251.06;;;24.05;76.44
46722;BME280;32455;43.430;23.136;2023-06-19T08:32:20;98265.78;;;24.09;74.85
46722;BME280;32455;43.430;23.136;2023-06-19T08:35:06;98264.88;;;24.14;73.37
46722;BME280;32455;43.430;23.136;2023-06-19T08:37:51;98260.34;;;24.32;72.13
46722;BME280;32455;43.430;23.136;2023-06-19T08:40:35;98266.94;;;24.44;67.04
46722;BME280;32455;43.430;23.136;2023-06-19T08:43:21;98264.09;;;24.36;69.49
46722;BME280;32455;43.430;23.136;2023-06-19T08:46:15;98255.84;;;24.36;64.92
46722;BME280;32455;43.430;23.136;2023-06-19T08:49:03;98259.69;;;24.48;67.03
46722;BME280;32455;43.430;23.136;2023-06-19T08:51:48;98266.81;;;24.49;59.42
46722;BME280;32455;43.430;23.136;2023-06-19T08:54:34;98264.25;;;24.53;60.34
46722;BME280;32455;43.430;23.136;2023-06-19T08:57:36;98258.34;;;24.60;54.64
46722;BME280;32455;43.430;23.136;2023-06-19T09:00:27;98265.38;;;24.74;59.83
46722;BME280;32455;43.430;23.136;2023-06-19T09:03:19;98271.88;;;24.79;54.88
46722;BME280;32455;43.430;23.136;2023-06-19T09:06:08;98264.47;;;24.88;54.28
46722;BME280;32455;43.430;23.136;2023-06-19T09:08:59;98258.19;;;24.87;55.58
46722;BME280;32455;43.430;23.136;2023-06-19T09:12:05;98256.84;;;25.07;59.70
46722;BME280;32455;43.430;23.136;2023-06-19T09:14:50;98248.09;;;25.05;56.63
46722;BME280;32455;43.430;23.136;2023-06-19T09:17:35;98252.69;;;25.10;57.23
46722;BME280;32455;43.430;23.136;2023-06-19T09:20:26;98248.31;;;25.09;59.60
46722;BME280;32455;43.430;23.136;2023-06-19T09:23:12;98248.22;;;25.00;58.93
46722;BME280;32455;43.430;23.136;2023-06-19T09:25:58;98256.19;;;25.02;58.55
46722;BME280;32455;43.430;23.136;2023-06-19T09:28:43;98246.28;;;25.23;60.38
46722;BME280;32455;43.430;23.136;2023-06-19T09:31:33;98250.72;;;25.41;57.32
46722;BME280;32455;43.430;23.136;2023-06-19T09:34:18;98239.47;;;25.20;54.99
46722;BME280;32455;43.430;23.136;2023-06-19T09:37:04;98250.50;;;25.29;55.38
46722;BME280;32455;43.430;23.136;2023-06-19T09:39:53;98253.19;;;25.12;53.29
46722;BME280;32455;43.430;23.136;2023-06-19T09:42:41;98251.78;;;25.23;51.43
46722;BME280;32455;43.430;23.136;2023-06-19T09:45:28;98250.50;;;25.29;52.70
46722;BME280;32455;43.430;23.136;2023-06-19T09:48:14;98253.63;;;25.36;54.82
46722;BME280;32455;43.430;23.136;2023-06-19T09:51:12;98253.53;;;25.59;54.61
46722;BME280;32455;43.430;23.136;2023-06-19T09:54:05;98244.72;;;25.39;51.53
46722;BME280;32455;43.430;23.136;2023-06-19T09:56:52;98247.97;;;25.41;55.68
46722;BME280;32455;43.430;23.136;2023-06-19T09:59:41;98251.22;;;25.52;50.74
46722;BME280;32455;43.430;23.136;2023-06-19T10:02:27;98245.06;;;25.46;51.08
46722;BME280;32455;43.430;23.136;2023-06-19T10:05:13;98250.13;;;25.53;53.37
46722;BME280;32455;43.430;23.136;2023-06-19T10:07:59;98253.88;;;25.57;51.53
46722;BME280;32455;43.430;23.136;2023-06-19T10:10:49;98241.63;;;25.81;49.75
46722;BME280;32455;43.430;23.136;2023-06-19T10:13:36;98245.16;;;25.72;49.57
46722;BME280;32455;43.430;23.136;2023-06-19T10:16:24;98241.22;;;25.65;49.68
46722;BME280;32455;43.430;23.136;2023-06-19T10:19:17;98239.88;;;26.02;54.49
46722;BME280;32455;43.430;23.136;2023-06-19T10:22:04;98233.41;;;25.98;54.02
46722;BME280;32455;43.430;23.136;2023-06-19T10:24:52;98244.41;;;25.98;51.00
46722;BME280;32455;43.430;23.136;2023-06-19T10:27:37;98231.31;;;26.12;46.61
46722;BME280;32455;43.430;23.136;2023-06-19T10:30:24;98227.09;;;26.15;49.60
46722;BME280;32455;43.430;23.136;2023-06-19T10:33:09;98242.63;;;25.85;45.92
46722;BME280;32455;43.430;23.136;2023-06-19T10:35:56;98216.25;;;26.01;51.32
46722;BME280;32455;43.430;23.136;2023-06-19T10:38:42;98213.84;;;26.17;49.77
46722;BME280;32455;43.430;23.136;2023-06-19T10:41:32;98222.91;;;26.17;47.50
46722;BME280;32455;43.430;23.136;2023-06-19T10:44:17;98229.84;;;26.23;47.53
46722;BME280;32455;43.430;23.136;2023-06-19T10:47:04;98224.00;;;26.16;52.49
46722;BME280;32455;43.430;23.136;2023-06-19T10:49:51;98233.91;;;26.00;44.73
46722;BME280;32455;43.430;23.136;2023-06-19T10:52:36;98221.41;;;25.85;46.17
46722;BME280;32455;43.430;23.136;2023-06-19T10:55:21;98233.09;;;26.00;44.08
46722;BME280;32455;43.430;23.136;2023-06-19T10:58:07;98218.84;;;26.23;47.27
46722;BME280;32455;43.430;23.136;2023-06-19T11:00:53;98219.97;;;26.31;50.13
46722;BME280;32455;43.430;23.136;2023-06-19T11:03:38;98218.19;;;26.35;51.20
46722;BME280;32455;43.430;23.136;2023-06-19T11:06:24;98210.56;;;26.58;52.57
46722;BME280;32455;43.430;23.136;2023-06-19T11:09:11;98223.19;;;26.42;48.62
46722;BME280;32455;43.430;23.136;2023-06-19T11:11:56;98208.31;;;26.34;48.30
46722;BME280;32455;43.430;23.136;2023-06-19T11:14:42;98206.03;;;26.36;48.42
46722;BME280;32455;43.430;23.136;2023-06-19T11:17:27;98208.31;;;26.52;50.45
46722;BME280;32455;43.430;23.136;2023-06-19T11:20:13;98203.22;;;26.80;50.55
46722;BME280;32455;43.430;23.136;2023-06-19T11:23:00;98201.78;;;26.74;50.97
46722;BME280;32455;43.430;23.136;2023-06-19T11:25:46;98199.97;;;26.86;51.41
46722;BME280;32455;43.430;23.136;2023-06-19T11:28:32;98193.19;;;26.75;50.60
46722;BME280;32455;43.430;23.136;2023-06-19T11:31:17;98204.44;;;27.08;45.31
46722;BME280;32455;43.430;23.136;2023-06-19T11:34:02;98201.16;;;26.77;46.52
46722;BME280;32455;43.430;23.136;2023-06-19T11:36:47;98191.06;;;26.72;50.04
46722;BME280;32455;43.430;23.136;2023-06-19T11:39:32;98197.28;;;26.60;51.60
46722;BME280;32455;43.430;23.136;2023-06-19T11:42:18;98199.00;;;26.91;54.94
46722;BME280;32455;43.430;23.136;2023-06-19T11:45:04;98204.47;;;27.00;51.00
46722;BME280;32455;43.430;23.136;2023-06-19T11:47:51;98196.97;;;27.17;48.54
46722;BME280;32455;43.430;23.136;2023-06-19T11:50:37;98187.81;;;26.87;49.73
46722;BME280;32455;43.430;23.136;2023-06-19T11:53:24;98208.09;;;26.83;47.39
46722;BME280;32455;43.430;23.136;2023-06-19T11:56:10;98196.66;;;27.02;46.52
46722;BME280;32455;43.430;23.136;2023-06-19T11:58:56;98184.44;;;26.82;47.53
46722;BME280;32455;43.430;23.136;2023-06-19T12:01:41;98189.59;;;26.83;46.42
46722;BME280;32455;43.430;23.136;2023-06-19T12:04:27;98180.00;;;26.98;48.56
46722;BME280;32455;43.430;23.136;2023-06-19T12:07:11;98175.16;;;26.86;45.57
46722;BME280;32455;43.430;23.136;2023-06-19T12:09:57;98166.31;;;27.10;49.02
46722;BME280;32455;43.430;23.136;2023-06-19T12:12:42;98179.97;;;27.15;51.26
46722;BME280;32455;43.430;23.136;2023-06-19T12:15:28;98174.72;;;27.23;46.17
46722;BME280;32455;43.430;23.136;2023-06-19T12:18:13;98172.16;;;27.09;50.36
46722;BME280;32455;43.430;23.136;2023-06-19T12:20:58;98166.03;;;27.03;46.58
46722;BME280;32455;43.430;23.136;2023-06-19T12:23:44;98167.25;;;27.23;45.29
46722;BME280;32455;43.430;23.136;2023-06-19T12:26:29;98174.66;;;27.31;48.95
46722;BME280;32455;43.430;23.136;2023-06-19T12:29:14;98164.34;;;27.19;47.43
46722;BME280;32455;43.430;23.136;2023-06-19T12:32:01;98166.16;;;27.15;48.85
46722;BME280;32455;43.430;23.136;2023-06-19T12:34:47;98167.59;;;27.21;48.56
46722;BME280;32455;43.430;23.136;2023-06-19T12:37:33;98167.16;;;27.40;48.40
46722;BME280;32455;43.430;23.136;2023-06-19T12:40:18;98164.22;;;27.16;50.21
46722;BME280;32455;43.430;23.136;2023-06-19T12:43:03;98159.69;;;27.11;50.64
46722;BME280;32455;43.430;23.136;2023-06-19T12:45:49;98162.00;;;27.30;46.68
46722;BME280;32455;43.430;23.136;2023-06-19T12:48:34;98159.00;;;27.44;45.20
46722;BME280;32455;43.430;23.136;2023-06-19T12:51:20;98150.88;;;27.48;48.10
46722;BME280;32455;43.430;23.136;2023-06-19T12:54:06;98163.69;;;27.23;47.43
46722;BME280;32455;43.430;23.136;2023-06-19T12:56:51;98150.97;;;27.30;47.29
46722;BME280;32455;43.430;23.136;2023-06-19T12:59:37;98152.09;;;27.38;48.16
46722;BME280;32455;43.430;23.136;2023-06-19T13:02:22;98143.03;;;27.58;45.06
46722;BME280;32455;43.430;23.136;2023-06-19T13:05:07;98136.28;;;27.68;47.36
46722;BME280;32455;43.430;23.136;2023-06-19T13:07:53;98130.97;;;27.63;49.10
46722;BME280;32455;43.430;23.136;2023-06-19T13:10:37;98141.88;;;27.59;49.52
46722;BME280;32455;43.430;23.136;2023-06-19T13:13:24;98141.91;;;27.30;47.73
46722;BME280;32455;43.430;23.136;2023-06-19T13:16:09;98140.19;;;27.46;45.50
46722;BME280;32455;43.430;23.136;2023-06-19T13:18:57;98135.94;;;27.69;46.88
46722;BME280;32455;43.430;23.136;2023-06-19T13:21:43;98134.69;;;27.67;48.01
46722;BME280;32455;43.430;23.136;2023-06-19T13:24:28;98130.81;;;27.38;49.81
46722;BME280;32455;43.430;23.136;2023-06-19T13:27:14;98136.53;;;27.33;46.33
46722;BME280;32455;43.430;23.136;2023-06-19T13:30:00;98139.13;;;27.59;44.61
46722;BME280;32455;43.430;23.136;2023-06-19T13:32:46;98138.88;;;27.73;41.99
46722;BME280;32455;43.430;23.136;2023-06-19T13:35:31;98140.84;;;27.73;42.01
46722;BME280;32455;43.430;23.136;2023-06-19T13:38:17;98127.22;;;27.67;42.92
46722;BME280;32455;43.430;23.136;2023-06-19T13:41:02;98134.00;;;27.70;42.88
46722;BME280;32455;43.430;23.136;2023-06-19T13:43:47;98130.59;;;27.73;42.00
46722;BME280;32455;43.430;23.136;2023-06-19T13:46:33;98128.25;;;27.33;44.46
46722;BME280;32455;43.430;23.136;2023-06-19T13:49:18;98124.22;;;27.52;46.27
46722;BME280;32455;43.430;23.136;2023-06-19T13:52:04;98121.16;;;27.74;46.38
46722;BME280;32455;43.430;23.136;2023-06-19T13:54:50;98129.44;;;27.74;43.99
46722;BME280;32455;43.430;23.136;2023-06-19T13:57:35;98121.44;;;27.81;45.95
46722;BME280;32455;43.430;23.136;2023-06-19T14:00:22;98121.78;;;27.80;45.83
46722;BME280;32455;43.430;23.136;2023-06-19T14:03:08;98121.66;;;27.46;45.30
46722;BME280;32455;43.430;23.136;2023-06-19T14:05:53;98115.19;;;27.42;46.72
46722;BME280;32455;43.430;23.136;2023-06-19T14:08:39;98115.88;;;26.63;47.04
46722;BME280;32455;43.430;23.136;2023-06-19T14:11:24;98124.63;;;26.65;48.40
46722;BME280;32455;43.430;23.136;2023-06-19T14:14:10;98116.16;;;27.17;49.51
46722;BME280;32455;43.430;23.136;2023-06-19T14:16:55;98118.63;;;27.39;50.19
46722;BME280;32455;43.430;23.136;2023-06-19T14:19:42;98108.72;;;27.38;49.39
46722;BME280;32455;43.430;23.136;2023-06-19T14:22:28;98118.38;;;27.53;48.46
46722;BME280;32455;43.430;23.136;2023-06-19T14:25:12;98108.56;;;27.64;49.17